WetterOnline ( http://www.wetteronline.de )

Wetter aktuell Teltow

Aktuelles Wetter: Berlin-Dahlem (70m)

6-stündlich | Neueste Meldungen
Ortszeit Temperatur Wetter
Mi, 24.01. 1:00 5.4° C bedeckt
Di, 23.01. 19:00 3.6° C bewölkt
Di, 23.01. 13:00 2.3° C bedeckt
Di, 23.01. 7:00 -0.0° C bedeckt
Di, 23.01. 1:00 -0.3° C bedeckt
Mo, 22.01. 19:00 0.2° C Schneegriesel
Mo, 22.01. 13:00 1.2° C bewölkt
Mo, 22.01. 7:00 -0.5° C wolkig
Ortszeit Temperatur Wetter
Mi, 24.01. 6:00 6.4° C bewölkt
Mi, 24.01. 5:00 5.7° C bedeckt
Mi, 24.01. 4:00 5.4° C Sprühregen
Mi, 24.01. 3:00 5.1° C Sprühregen
Mi, 24.01. 2:00 4.9° C Sprühregen
Mi, 24.01. 1:00 5.4° C bedeckt, nach Regen
Ortszeit Relative Feuchte Sichtweite
Mi, 24.01. 1:00 87% 10 km
Di, 23.01. 19:00 100% 5.0 km
Di, 23.01. 13:00 92% 6 km
Di, 23.01. 7:00 98% 4.5 km
Di, 23.01. 1:00 94% 12 km
Mo, 22.01. 19:00 83% 12 km
Mo, 22.01. 13:00 75% 17 km
Mo, 22.01. 7:00 94% 16 km
Ortszeit Relative Feuchte Sichtweite
Mi, 24.01. 6:00 96% 40 km
Mi, 24.01. 5:00 99% 25 km
Mi, 24.01. 4:00 99% 13 km
Mi, 24.01. 3:00 99% 13 km
Mi, 24.01. 2:00 98% 5.0 km
Mi, 24.01. 1:00 87% 10 km
Ortszeit Niederschlagsmenge Niederschlagsart
Mi, 24.01. 1:00 0.2 l/m2 in 6 Std. Regen
Di, 23.01. 19:00 0.3 l/m2 in 12 Std. Regen
Di, 23.01. 13:00 0.0 l/m2 in 6 Std. -
Di, 23.01. 7:00 0.1 l/m2 in 12 Std. -
Di, 23.01. 1:00 0.1 l/m2 in 6 Std. Schnee
Mo, 22.01. 19:00 0.1 l/m2 in 12 Std. Schnee
Mo, 22.01. 13:00 0.1 l/m2 in 6 Std. -
Mo, 22.01. 7:00 0.0 l/m2 in 12 Std. -
Ortszeit Niederschlagsmenge Niederschlagsart
Mi, 24.01. 6:00 keine Meldung -
Mi, 24.01. 5:00 keine Meldung -
Mi, 24.01. 4:00 keine Meldung -
Mi, 24.01. 3:00 keine Meldung -
Mi, 24.01. 2:00 keine Meldung -
Mi, 24.01. 1:00 keine Meldung -
Ortszeit Stärke Spitze Richtung
km/h Bft. km/h Grad Sektor
Mi, 24.01. 1:00 18 3 - 210° SW
Di, 23.01. 19:00 14 3 - 170° S
Di, 23.01. 13:00 11 2 - 170° S
Di, 23.01. 7:00 4 1 - 290° W
Di, 23.01. 1:00 11 2 - 130° SO
Mo, 22.01. 19:00 18 3 47 140° SO
Mo, 22.01. 13:00 22 4 - 150° SO
Mo, 22.01. 7:00 14 3 - 150° SO
Ortszeit Stärke Spitze Richtung
km/h Bft. km/h Grad Sektor
Mi, 24.01. 6:00 18 3 - 220° SW
Mi, 24.01. 5:00 18 3 - 210° SW
Mi, 24.01. 4:00 18 3 - 200° S
Mi, 24.01. 3:00 22 4 - 210° SW
Mi, 24.01. 2:00 18 3 - 210° SW
Mi, 24.01. 1:00 18 3 - 210° SW
Ortszeit Untergrenze Bedeckung Gattung
total tief tief mittel hoch
Mi, 24.01. 1:00 900 m 8/8 7/8 Sc - -
Di, 23.01. 19:00 990 m 7/8 7/8 Sc - -
Di, 23.01. 13:00 150 m 8/8 7/8 Sc - -
Di, 23.01. 7:00 90 m 8/8 7/8 St - -
Di, 23.01. 1:00 330 m 8/8 7/8 St - -
Mo, 22.01. 19:00 1200 m 8/8 8/8 Sc - -
Mo, 22.01. 13:00 1200 m 7/8 1/8 Sc As -
Mo, 22.01. 7:00 240 m 7/8 1/8 St Ns -
Ortszeit Bedeckungsgrad in Achtel und Wolkenuntergrenze
Mi, 24.01. 6:00 1(750m) 7(780m)
Mi, 24.01. 5:00 1(300m) 7(780m) 8
Mi, 24.01. 4:00 3(240m) 7(780m) 8
Mi, 24.01. 3:00 7(240m)
Mi, 24.01. 2:00 8(120m)
Mi, 24.01. 1:00 7(900m)
Ortszeit Luftdruck NN (hPa) Tendenz (hPa in 3 Std.)
Mi, 24.01. 1:00 1019 - 1,4
Di, 23.01. 19:00 1022 - 0,5
Di, 23.01. 13:00 1023 + 0,8
Di, 23.01. 7:00 1020 + 2,4
Di, 23.01. 1:00 1015 + 2,1
Mo, 22.01. 19:00 1011 + 1,2
Mo, 22.01. 13:00 1011 - 1,6
Mo, 22.01. 7:00 1014 - 1,7
Ortszeit Luftdruck NN (hPa) Tendenz (hPa in 3 Std.)
Mi, 24.01. 6:00 1017 - 0,9
Mi, 24.01. 5:00 1018 - 0,7
Mi, 24.01. 4:00 1018 - 1,3
Mi, 24.01. 3:00 1018 - 1,2
Mi, 24.01. 2:00 1019 - 1,4
Mi, 24.01. 1:00 1019 - 1,4
Ortszeit Schneehöhe (cm)
Mi, 24.01. 1:00 0
Di, 23.01. 19:00 0
Di, 23.01. 13:00 0
Di, 23.01. 7:00 0
Di, 23.01. 1:00 0
Mo, 22.01. 19:00 0
Mo, 22.01. 13:00 0
Mo, 22.01. 7:00 0
Ortszeit Schneehöhe (cm)
Mi, 24.01. 6:00 -
Mi, 24.01. 5:00 -
Mi, 24.01. 4:00 -
Mi, 24.01. 3:00 -
Mi, 24.01. 2:00 -
Mi, 24.01. 1:00 0
Link zu dieser Seite / Seite empfehlen

Das Wetter in ...